Roche Harbor, Washington
Current Conditions -  °F | °C
As of 12:53 AM on Saturday 20 Dec 2014 (Local Time) from KFHR Reporting Station
Overcast Overcast  
Wind Chill:   Ceiling: 9000
Heat Index:   Visibility: 10mi
Dew Point:   Wind: 23mph
Humidity: 69%   Direction: 120°ESE
Pressure: 29.76"   Gusts: 32mph
Location:  48.5377°N, 123.083°W
Report Text: KFHR 200853Z AUTO 12020G28KT 10SM OVC090 09/04 A2976 RMK AO2 PK WND 12028/0853 SLP078 60000 T00940039 58021
Loading
Personal Weather Stations






























Interactive Weather Map New forecast layout! Learn more

10-Day Weather Forecast

Advertisements
Track Severe Weather on mobile